OCN461 EDDF-EDDM
Flight info
| Callsign | OCN461 |
|---|---|
| Flight time | 0h 36m |
| Altitude | 25000 |
| Route | CINDY8S/18 CINDY Z74 HAREM T104 ROKIL ROKIL1B |
| Aircraft | A320/M-SDE3FGHIRWY/LB1 |
Departure
| Time | 2026-05-07 15:37 |
|---|---|
| Airport | Frankfurt Main Airport (EDDF) |
Arrival
| Time | 2026-05-07 16:13 |
|---|---|
| Airport | Munich Airport (EDDM) |
| Time | Latitude | Longitude | Altitude | Speed | Heading |
|---|---|---|---|---|---|
| 2026-05-07 15:09 | 50.04416 | 8.56277 | 360 ft | 0 kts | 165° |
| 2026-05-07 15:25 | 50.04419 | 8.56276 | 361 ft | 2 kts | 165° |
| 2026-05-07 15:25 | 50.04444 | 8.56265 | 364 ft | 4 kts | 165° |
| 2026-05-07 15:25 | 50.04464 | 8.56257 | 361 ft | 4 kts | 183° |
| 2026-05-07 15:26 | 50.04486 | 8.56271 | 361 ft | 4 kts | 235° |
| 2026-05-07 15:26 | 50.04497 | 8.56305 | 361 ft | 4 kts | 249° |
| 2026-05-07 15:26 | 50.04506 | 8.56345 | 363 ft | 4 kts | 249° |
| 2026-05-07 15:26 | 50.04514 | 8.56377 | 365 ft | 0 kts | 249° |
| 2026-05-07 15:30 | 50.04511 | 8.56364 | 361 ft | 6 kts | 250° |
| 2026-05-07 15:30 | 50.04497 | 8.56304 | 361 ft | 10 kts | 249° |
| 2026-05-07 15:31 | 50.04470 | 8.56193 | 367 ft | 12 kts | 250° |
| 2026-05-07 15:31 | 50.04440 | 8.56065 | 365 ft | 14 kts | 249° |
| 2026-05-07 15:31 | 50.04365 | 8.56049 | 361 ft | 12 kts | 168° |
| 2026-05-07 15:31 | 50.04294 | 8.56080 | 361 ft | 10 kts | 175° |
| 2026-05-07 15:32 | 50.04257 | 8.56011 | 361 ft | 9 kts | 250° |
| 2026-05-07 15:32 | 50.04230 | 8.55903 | 362 ft | 12 kts | 250° |
| 2026-05-07 15:32 | 50.04192 | 8.55744 | 365 ft | 18 kts | 250° |
| 2026-05-07 15:32 | 50.04146 | 8.55548 | 362 ft | 20 kts | 249° |
| 2026-05-07 15:33 | 50.04095 | 8.55338 | 367 ft | 21 kts | 250° |
| 2026-05-07 15:33 | 50.04041 | 8.55111 | 361 ft | 23 kts | 250° |
| 2026-05-07 15:33 | 50.03984 | 8.54871 | 362 ft | 24 kts | 250° |
| 2026-05-07 15:33 | 50.03924 | 8.54624 | 362 ft | 25 kts | 249° |
| 2026-05-07 15:34 | 50.03866 | 8.54386 | 365 ft | 19 kts | 242° |
| 2026-05-07 15:34 | 50.03796 | 8.54205 | 360 ft | 20 kts | 252° |
| 2026-05-07 15:34 | 50.03745 | 8.53994 | 365 ft | 21 kts | 250° |
| 2026-05-07 15:34 | 50.03692 | 8.53772 | 363 ft | 22 kts | 250° |
| 2026-05-07 15:35 | 50.03635 | 8.53541 | 361 ft | 23 kts | 248° |
| 2026-05-07 15:35 | 50.03577 | 8.53301 | 363 ft | 24 kts | 250° |
| 2026-05-07 15:35 | 50.03518 | 8.53054 | 365 ft | 25 kts | 249° |
| 2026-05-07 15:35 | 50.03456 | 8.52803 | 365 ft | 25 kts | 248° |
| 2026-05-07 15:36 | 50.03363 | 8.52599 | 364 ft | 24 kts | 195° |
| 2026-05-07 15:36 | 50.03162 | 8.52595 | 361 ft | 44 kts | 180° |
| 2026-05-07 15:36 | 50.02610 | 8.52602 | 366 ft | 111 kts | 180° |
| 2026-05-07 15:36 | 50.01654 | 8.52613 | 365 ft | 161 kts | 180° |
| 2026-05-07 15:37 | 50.00442 | 8.52625 | 681 ft | 182 kts | 180° |
| 2026-05-07 15:37 | 49.99118 | 8.52641 | 1172 ft | 198 kts | 180° |
| 2026-05-07 15:37 | 49.97696 | 8.52674 | 1707 ft | 209 kts | 172° |
| 2026-05-07 15:37 | 49.96346 | 8.53551 | 2164 ft | 220 kts | 135° |
| 2026-05-07 15:38 | 49.95498 | 8.55594 | 2784 ft | 231 kts | 114° |
| 2026-05-07 15:38 | 49.94777 | 8.57843 | 3688 ft | 235 kts | 117° |
| 2026-05-07 15:38 | 49.94154 | 8.60209 | 4534 ft | 240 kts | 102° |
| 2026-05-07 15:38 | 49.93954 | 8.62894 | 5004 ft | 263 kts | 92° |
| 2026-05-07 15:39 | 49.93825 | 8.65806 | 5684 ft | 275 kts | 97° |
| 2026-05-07 15:39 | 49.93285 | 8.68668 | 6521 ft | 280 kts | 116° |
| 2026-05-07 15:39 | 49.92163 | 8.71144 | 7351 ft | 284 kts | 136° |
| 2026-05-07 15:39 | 49.90603 | 8.73040 | 8183 ft | 287 kts | 146° |
| 2026-05-07 15:40 | 49.89017 | 8.74954 | 9023 ft | 292 kts | 136° |
| 2026-05-07 15:40 | 49.87731 | 8.77424 | 9855 ft | 297 kts | 121° |
| 2026-05-07 15:40 | 49.86710 | 8.80255 | 10426 ft | 310 kts | 119° |
| 2026-05-07 15:40 | 49.85623 | 8.83286 | 10683 ft | 334 kts | 119° |
| 2026-05-07 15:41 | 49.84459 | 8.86504 | 11113 ft | 348 kts | 120° |
| 2026-05-07 15:41 | 49.83263 | 8.89805 | 11804 ft | 354 kts | 120° |
| 2026-05-07 15:41 | 49.82053 | 8.93140 | 12541 ft | 358 kts | 119° |
| 2026-05-07 15:41 | 49.80824 | 8.96520 | 13285 ft | 361 kts | 119° |
| 2026-05-07 15:42 | 49.79585 | 8.99919 | 13992 ft | 365 kts | 119° |
| 2026-05-07 15:42 | 49.78328 | 9.03358 | 14632 ft | 369 kts | 120° |
| 2026-05-07 15:42 | 49.77059 | 9.06833 | 15279 ft | 372 kts | 118° |
| 2026-05-07 15:42 | 49.76021 | 9.10514 | 15867 ft | 377 kts | 108° |
| 2026-05-07 15:43 | 49.75342 | 9.14467 | 16478 ft | 382 kts | 106° |
| 2026-05-07 15:43 | 49.74376 | 9.18302 | 17093 ft | 386 kts | 117° |
| 2026-05-07 15:43 | 49.72946 | 9.21814 | 17692 ft | 389 kts | 129° |
| 2026-05-07 15:43 | 49.71168 | 9.24990 | 18294 ft | 392 kts | 133° |
| 2026-05-07 15:44 | 49.69358 | 9.28155 | 18830 ft | 395 kts | 133° |
| 2026-05-07 15:44 | 49.67539 | 9.31355 | 19371 ft | 398 kts | 132° |
| 2026-05-07 15:44 | 49.65712 | 9.34582 | 19909 ft | 400 kts | 132° |
| 2026-05-07 15:44 | 49.63904 | 9.37779 | 20433 ft | 402 kts | 132° |
| 2026-05-07 15:45 | 49.62034 | 9.41080 | 20909 ft | 405 kts | 132° |
| 2026-05-07 15:45 | 49.60201 | 9.44311 | 21296 ft | 407 kts | 132° |
| 2026-05-07 15:45 | 49.58332 | 9.47603 | 21823 ft | 409 kts | 132° |
| 2026-05-07 15:45 | 49.56422 | 9.50961 | 22268 ft | 413 kts | 133° |
| 2026-05-07 15:46 | 49.52623 | 9.57619 | 23209 ft | 419 kts | 133° |
| 2026-05-07 15:46 | 49.50695 | 9.60993 | 23674 ft | 422 kts | 133° |
| 2026-05-07 15:46 | 49.48751 | 9.64390 | 24056 ft | 424 kts | 133° |
| 2026-05-07 15:47 | 49.46786 | 9.67813 | 24445 ft | 427 kts | 133° |
| 2026-05-07 15:47 | 49.44821 | 9.71229 | 24854 ft | 429 kts | 133° |
| 2026-05-07 15:47 | 49.42844 | 9.74669 | 25020 ft | 429 kts | 133° |
| 2026-05-07 15:47 | 49.40864 | 9.78115 | 25135 ft | 433 kts | 133° |
| 2026-05-07 15:48 | 49.38871 | 9.81581 | 25057 ft | 428 kts | 133° |
| 2026-05-07 15:48 | 49.36928 | 9.84953 | 25047 ft | 419 kts | 133° |
| 2026-05-07 15:48 | 49.34991 | 9.88303 | 25058 ft | 420 kts | 133° |
| 2026-05-07 15:48 | 49.33059 | 9.91639 | 25058 ft | 420 kts | 133° |
| 2026-05-07 15:49 | 49.31116 | 9.94990 | 25044 ft | 420 kts | 133° |
| 2026-05-07 15:49 | 49.29173 | 9.98340 | 25057 ft | 420 kts | 133° |
| 2026-05-07 15:49 | 49.27235 | 10.01670 | 25058 ft | 420 kts | 133° |
| 2026-05-07 15:49 | 49.25284 | 10.05015 | 25061 ft | 420 kts | 133° |
| 2026-05-07 15:50 | 49.23334 | 10.08353 | 25059 ft | 420 kts | 133° |
| 2026-05-07 15:50 | 49.21381 | 10.11688 | 25053 ft | 420 kts | 133° |
| 2026-05-07 15:50 | 49.19433 | 10.15013 | 25064 ft | 420 kts | 133° |
| 2026-05-07 15:50 | 49.17484 | 10.18338 | 25063 ft | 421 kts | 133° |
| 2026-05-07 15:51 | 49.15539 | 10.21664 | 25062 ft | 420 kts | 133° |
| 2026-05-07 15:51 | 49.13576 | 10.25011 | 25066 ft | 423 kts | 133° |
| 2026-05-07 15:51 | 49.11581 | 10.28319 | 25064 ft | 424 kts | 134° |
| 2026-05-07 15:51 | 49.09558 | 10.31582 | 24947 ft | 421 kts | 135° |
| 2026-05-07 15:52 | 49.07541 | 10.34788 | 24400 ft | 418 kts | 135° |
| 2026-05-07 15:52 | 49.05533 | 10.37965 | 23858 ft | 415 kts | 136° |
| 2026-05-07 15:52 | 49.03534 | 10.41128 | 23301 ft | 412 kts | 136° |
| 2026-05-07 15:52 | 49.01555 | 10.44272 | 22749 ft | 409 kts | 135° |
| 2026-05-07 15:53 | 48.99595 | 10.47395 | 22203 ft | 406 kts | 135° |
| 2026-05-07 15:53 | 48.97658 | 10.50485 | 21674 ft | 403 kts | 135° |
| 2026-05-07 15:53 | 48.95728 | 10.53564 | 21154 ft | 400 kts | 136° |
| 2026-05-07 15:53 | 48.93811 | 10.56619 | 20663 ft | 397 kts | 136° |
| 2026-05-07 15:54 | 48.91915 | 10.59642 | 20151 ft | 395 kts | 135° |
| 2026-05-07 15:54 | 48.90022 | 10.62660 | 19656 ft | 393 kts | 135° |
| 2026-05-07 15:54 | 48.88141 | 10.65658 | 19202 ft | 390 kts | 136° |
| 2026-05-07 15:54 | 48.86279 | 10.68640 | 18744 ft | 388 kts | 133° |
| 2026-05-07 15:55 | 48.84794 | 10.72050 | 18295 ft | 388 kts | 115° |
| 2026-05-07 15:55 | 48.83841 | 10.75869 | 17790 ft | 386 kts | 110° |
| 2026-05-07 15:55 | 48.82941 | 10.79689 | 17311 ft | 383 kts | 110° |
| 2026-05-07 15:55 | 48.82053 | 10.83488 | 16858 ft | 380 kts | 110° |
| 2026-05-07 15:56 | 48.81174 | 10.87252 | 16425 ft | 377 kts | 110° |
| 2026-05-07 15:56 | 48.80300 | 10.90988 | 16011 ft | 375 kts | 110° |
| 2026-05-07 15:56 | 48.79430 | 10.94692 | 15606 ft | 372 kts | 110° |
| 2026-05-07 15:56 | 48.78562 | 10.98370 | 15177 ft | 369 kts | 111° |
| 2026-05-07 15:57 | 48.77699 | 11.02020 | 14739 ft | 366 kts | 111° |
| 2026-05-07 15:57 | 48.76841 | 11.05641 | 14318 ft | 364 kts | 111° |
| 2026-05-07 15:57 | 48.75985 | 11.09248 | 13947 ft | 362 kts | 111° |
| 2026-05-07 15:57 | 48.75137 | 11.12821 | 13507 ft | 360 kts | 111° |
| 2026-05-07 15:58 | 48.74292 | 11.16371 | 13026 ft | 357 kts | 111° |
| 2026-05-07 15:58 | 48.73450 | 11.19897 | 12573 ft | 355 kts | 111° |
| 2026-05-07 15:58 | 48.72612 | 11.23403 | 12126 ft | 352 kts | 111° |
| 2026-05-07 15:58 | 48.71779 | 11.26870 | 11674 ft | 350 kts | 111° |
| 2026-05-07 15:59 | 48.70949 | 11.30319 | 11361 ft | 348 kts | 111° |
| 2026-05-07 15:59 | 48.70121 | 11.33768 | 11218 ft | 348 kts | 111° |
| 2026-05-07 15:59 | 48.69294 | 11.37214 | 11060 ft | 348 kts | 111° |
| 2026-05-07 15:59 | 48.68471 | 11.40643 | 11027 ft | 348 kts | 111° |
| 2026-05-07 16:00 | 48.67641 | 11.44091 | 11022 ft | 348 kts | 111° |
| 2026-05-07 16:00 | 48.66810 | 11.47531 | 11032 ft | 348 kts | 111° |
| 2026-05-07 16:00 | 48.65978 | 11.50972 | 11029 ft | 349 kts | 111° |
| 2026-05-07 16:00 | 48.65143 | 11.54419 | 10991 ft | 347 kts | 111° |
| 2026-05-07 16:01 | 48.64316 | 11.57824 | 10570 ft | 344 kts | 111° |
| 2026-05-07 16:01 | 48.63494 | 11.61203 | 10125 ft | 342 kts | 111° |
| 2026-05-07 16:01 | 48.62687 | 11.64514 | 9895 ft | 333 kts | 111° |
| 2026-05-07 16:01 | 48.61890 | 11.67782 | 9753 ft | 321 kts | 111° |
| 2026-05-07 16:02 | 48.61146 | 11.70861 | 9621 ft | 311 kts | 111° |
| 2026-05-07 16:02 | 48.60408 | 11.73923 | 9392 ft | 303 kts | 111° |
| 2026-05-07 16:02 | 48.59696 | 11.76868 | 9029 ft | 301 kts | 111° |
| 2026-05-07 16:02 | 48.58980 | 11.79829 | 8659 ft | 299 kts | 111° |
| 2026-05-07 16:03 | 48.58271 | 11.82762 | 8303 ft | 296 kts | 111° |
| 2026-05-07 16:03 | 48.57561 | 11.85676 | 7946 ft | 295 kts | 111° |
| 2026-05-07 16:03 | 48.56856 | 11.88566 | 7594 ft | 293 kts | 111° |
| 2026-05-07 16:03 | 48.56162 | 11.91402 | 7445 ft | 284 kts | 111° |
| 2026-05-07 16:04 | 48.55485 | 11.94163 | 7301 ft | 276 kts | 111° |
| 2026-05-07 16:04 | 48.54829 | 11.96826 | 7174 ft | 267 kts | 111° |
| 2026-05-07 16:04 | 48.54192 | 11.99420 | 7057 ft | 261 kts | 111° |
| 2026-05-07 16:04 | 48.53563 | 12.01978 | 6830 ft | 259 kts | 111° |
| 2026-05-07 16:05 | 48.52941 | 12.04514 | 6572 ft | 257 kts | 111° |
| 2026-05-07 16:05 | 48.52320 | 12.07037 | 6303 ft | 256 kts | 111° |
| 2026-05-07 16:05 | 48.51696 | 12.09543 | 6016 ft | 255 kts | 111° |
| 2026-05-07 16:05 | 48.51069 | 12.12040 | 5733 ft | 254 kts | 111° |
| 2026-05-07 16:06 | 48.50331 | 12.14433 | 5446 ft | 250 kts | 129° |
| 2026-05-07 16:06 | 48.49011 | 12.16028 | 5172 ft | 241 kts | 161° |
| 2026-05-07 16:06 | 48.47424 | 12.16644 | 5023 ft | 231 kts | 173° |
| 2026-05-07 16:06 | 48.45880 | 12.17041 | 4997 ft | 219 kts | 174° |
| 2026-05-07 16:07 | 48.44427 | 12.17400 | 5016 ft | 203 kts | 175° |
| 2026-05-07 16:07 | 48.43060 | 12.17721 | 5007 ft | 196 kts | 181° |
| 2026-05-07 16:07 | 48.41822 | 12.17246 | 4996 ft | 179 kts | 221° |
| 2026-05-07 16:07 | 48.40972 | 12.15926 | 5012 ft | 177 kts | 233° |
| 2026-05-07 16:08 | 48.40185 | 12.14479 | 5010 ft | 181 kts | 234° |
| 2026-05-07 16:08 | 48.39404 | 12.13002 | 5006 ft | 178 kts | 236° |
| 2026-05-07 16:08 | 48.38885 | 12.11365 | 5005 ft | 172 kts | 262° |
| 2026-05-07 16:08 | 48.38739 | 12.09568 | 4978 ft | 174 kts | 266° |
| 2026-05-07 16:09 | 48.38608 | 12.07767 | 4832 ft | 173 kts | 266° |
| 2026-05-07 16:09 | 48.38477 | 12.05973 | 4619 ft | 172 kts | 265° |
| 2026-05-07 16:09 | 48.38345 | 12.04186 | 4386 ft | 172 kts | 265° |
| 2026-05-07 16:09 | 48.38212 | 12.02396 | 4155 ft | 172 kts | 265° |
| 2026-05-07 16:10 | 48.38080 | 12.00624 | 3926 ft | 169 kts | 265° |
| 2026-05-07 16:10 | 48.37951 | 11.98902 | 3716 ft | 161 kts | 266° |
| 2026-05-07 16:10 | 48.37827 | 11.97240 | 3491 ft | 159 kts | 265° |
| 2026-05-07 16:10 | 48.37704 | 11.95595 | 3280 ft | 155 kts | 265° |
| 2026-05-07 16:11 | 48.37588 | 11.94051 | 3079 ft | 144 kts | 265° |
| 2026-05-07 16:11 | 48.37482 | 11.92610 | 2877 ft | 134 kts | 266° |
| 2026-05-07 16:11 | 48.37366 | 11.91181 | 2710 ft | 139 kts | 266° |
| 2026-05-07 16:11 | 48.37240 | 11.89705 | 2505 ft | 146 kts | 266° |
| 2026-05-07 16:12 | 48.37122 | 11.88194 | 2332 ft | 148 kts | 266° |
| 2026-05-07 16:12 | 48.37044 | 11.87161 | 2223 ft | 146 kts | 268° |
| 2026-05-07 16:12 | 48.36920 | 11.85662 | 2078 ft | 146 kts | 266° |
| 2026-05-07 16:12 | 48.36813 | 11.84142 | 1874 ft | 145 kts | 268° |
| 2026-05-07 16:13 | 48.36714 | 11.82655 | 1623 ft | 142 kts | 269° |
| 2026-05-07 16:13 | 48.36592 | 11.80847 | 1482 ft | 107 kts | 262° |
| 2026-05-07 16:13 | 48.36542 | 11.80219 | 1485 ft | 66 kts | 263° |
| 2026-05-07 16:13 | 48.36494 | 11.79844 | 1475 ft | 32 kts | 240° |
| 2026-05-07 16:14 | 48.36378 | 11.79555 | 1485 ft | 32 kts | 233° |
| 2026-05-07 16:14 | 48.36287 | 11.79369 | 1478 ft | 9 kts | 232° |
| 2026-05-07 16:14 | 48.36263 | 11.79321 | 1479 ft | 5 kts | 231° |
| 2026-05-07 16:14 | 48.36244 | 11.79292 | 1478 ft | 3 kts | 213° |
| 2026-05-07 16:15 | 48.36216 | 11.79293 | 1482 ft | 6 kts | 175° |
| 2026-05-07 16:15 | 48.36158 | 11.79303 | 1482 ft | 11 kts | 173° |
| 2026-05-07 16:15 | 48.36085 | 11.79316 | 1485 ft | 10 kts | 174° |
| 2026-05-07 16:15 | 48.36021 | 11.79326 | 1471 ft | 9 kts | 174° |
| 2026-05-07 16:16 | 48.35966 | 11.79336 | 1475 ft | 7 kts | 173° |
| 2026-05-07 16:16 | 48.35922 | 11.79354 | 1477 ft | 6 kts | 153° |
| 2026-05-07 16:16 | 48.35887 | 11.79376 | 1479 ft | 5 kts | 161° |
| 2026-05-07 16:16 | 48.35856 | 11.79376 | 1478 ft | 6 kts | 209° |
| 2026-05-07 16:17 | 48.35846 | 11.79315 | 1479 ft | 6 kts | 266° |
| 2026-05-07 16:17 | 48.35841 | 11.79247 | 1485 ft | 6 kts | 263° |
| 2026-05-07 16:17 | 48.35841 | 11.79245 | 1485 ft | 0 kts | 263° |
| 2026-05-07 16:17 | 48.35841 | 11.79242 | 1485 ft | 0 kts | 263° |